Terminal Aerodrome Forecast
Issued by NWS Binghamton, NY

Home | Current Version | Previous Version | Text Only | Print | Product List | Glossary On
Versions: 1 2 3 4 5 6 7 8 9 10 11 12 13 14 15 16 17 18 19
000
FTUS41 KBGM 282300
TAFSYR
TAF
KSYR 282330Z 2900/2924 24010KT P6SM -SHSN FEW025 OVC045
     FM290400 22005KT P6SM SCT045 OVC100
     FM291400 16012KT P6SM SCT035 OVC070=

USA.gov is the U.S. government's official web portal to all federal, state and local government web resources and services.